< < Back
Terminal Aerodrome Forecast


Current Version              Previous Versions:   1  2  3  4  5  6  7  8  9  

Terminal Aerodrome Forecast

184
FTUS42 KFFC 261739 CCB
TAFMCN
TAF COR
KMCN 261739Z 2618/2718 11005KT P6SM SCT030
     FM262100 10005KT P6SM VCSH BKN040
     FM270200 13004KT P6SM SCT040 BKN100
     FM270500 00000KT P6SM SCT015 SCT100
     FM271700 27003KT P6SM VCSH BKN040=



Latest METAR

529
SAUS80 KWBC 262100 RRA
MTRMCN
METAR KMCN 262053Z 14004KT 10SM CLR 32/18 A2997 RMK AO2 SLP143 T03170183
56026


USA.gov is the U.S. government's official web portal to all federal, state and local government web resources and services.